Aeroboteco Virtual Airlines! Uma nuvem a frente.



 INFORMAÇÕES METEOROLÓGICAS
METAR FOR HELX
ADDS - METARS form results

(0805 UTC 14 August 2020)
Data provider http://aviationweather.gov/metar/data/
 
Forecast for: HELX (LUXOR (CIV/MIL) , EG)
Text: TAF HELX 140500Z 1406/1512 32008KT 6000 NSC
Forecast period: 0600 UTC 14 August 2020 to 1200 UTC 15 August 2020
Forecast type: FROM: standard forecast or significant change
Winds: from the NW (320 degrees) at 9 MPH (8 knots; 4.1 m/s)
Visibility: 4 miles (6 km)
Ceiling: unknown
Clouds: missing
Weather: no significant weather forecast for this period

 MAPA DO AEROPORTO

 INFORMAÇÕES DA PISTA
Pista 02 Tamanho da pista 9843 ft Largura da pista 148 ft
Elevação da pista 294 ft Ranhura da pista 0 ft Proa da pista 23
Pista 20 Tamanho da pista 9843 ft Largura da pista 148 ft
Elevação da pista 272 ft Ranhura da pista 0 ft Proa da pista 203

 FREQUÊNCIAS DO AEROPORTO
Tipo APP Nome RADAR Frequência 124.3 MHZ
Tipo GND Nome GND Frequência 121.9 MHZ
Tipo RDO Nome RDO Frequência 585.9 MHZ
Tipo TWR Nome TWR Frequência 119.9 MHZ

 AUXÍLIOS DE NAVEGAÇÃO PRÓXIMOS AO AEROPORTO
Tipo NDB Nome Luxor Frequência 364 KHZ
Tipo VOR-DME Nome Luxor Frequência 114400 KHZ